Arcadia, Illinois
Current Conditions -  °F | °C
As of 3:15 AM on Sunday 26 Oct 2014 (Local Time) from KIJX Reporting Station
Clear Clear  
Wind Chill: 52°   Ceiling: Unl
Heat Index: 52°   Visibility: 10mi
Dew Point: 40°   Wind: 3mph
Humidity: 63%   Direction: 20°NNE
Pressure: 30.03"   Gusts: NA
Location:  39.7413°N, 90.2138°W
Report Text: KIJX 260815Z AUTO 02003KT 10SM CLR 11/04 A3003 RMK AO2 T01110044
Loading
Personal Weather Stations






























Interactive Weather Map
Tropical Storm Tracking
New forecast layout! Learn more

10-Day Weather Forecast

Advertisements
Track Severe Weather on mobile